createdAt,value
2023-05-13T00:02:15.602Z,5.55
2023-05-13T00:04:42.414Z,6.25
2023-05-13T00:07:09.108Z,6.00
2023-05-13T00:09:38.372Z,6.22
2023-05-13T00:12:05.494Z,6.07
2023-05-13T00:14:34.236Z,5.28
2023-05-13T00:17:04.293Z,4.97
2023-05-13T00:19:31.762Z,5.30
2023-05-13T00:21:58.545Z,5.10
2023-05-13T00:24:26.191Z,6.00
2023-05-13T00:26:52.843Z,4.90
2023-05-13T00:29:19.630Z,5.20
2023-05-13T00:31:46.348Z,5.40
2023-05-13T00:34:13.084Z,5.32
2023-05-13T00:36:40.038Z,5.22
2023-05-13T00:39:06.780Z,5.90
2023-05-13T00:41:33.441Z,5.43
2023-05-13T00:44:00.251Z,5.82
2023-05-13T00:46:31.456Z,5.65
2023-05-13T00:48:59.195Z,6.15
2023-05-13T00:51:26.095Z,5.70
2023-05-13T00:53:52.915Z,5.65
2023-05-13T00:56:24.368Z,5.47
2023-05-13T00:58:51.114Z,5.70
2023-05-13T01:01:34.254Z,6.05
2023-05-13T01:04:08.958Z,5.32
2023-05-13T01:07:07.989Z,5.32
2023-05-13T01:10:07.205Z,5.50
2023-05-13T01:12:37.929Z,5.45
2023-05-13T01:15:17.675Z,5.22
2023-05-13T01:17:55.461Z,5.05
2023-05-13T01:20:24.156Z,5.50
2023-05-13T01:22:51.517Z,5.90
2023-05-13T01:25:18.295Z,5.25
2023-05-13T01:27:45.987Z,5.63
2023-05-13T01:30:13.527Z,5.47
2023-05-13T01:32:40.482Z,5.88
2023-05-13T01:35:09.210Z,5.38
2023-05-13T01:37:37.311Z,5.72
2023-05-13T01:40:20.396Z,5.45
2023-05-13T01:42:54.833Z,5.88
2023-05-13T01:45:21.567Z,6.20
2023-05-13T01:47:48.820Z,5.68
2023-05-13T01:50:15.675Z,5.88
2023-05-13T01:52:42.390Z,5.85
2023-05-13T01:55:10.405Z,5.75
2023-05-13T01:57:37.141Z,5.38
2023-05-13T02:00:05.189Z,6.25
2023-05-13T02:02:31.924Z,5.50
2023-05-13T02:04:58.680Z,5.18
2023-05-13T02:07:25.533Z,6.05
2023-05-13T02:09:55.515Z,5.35
2023-05-13T02:14:48.788Z,5.68
2023-05-13T02:17:16.018Z,5.95
2023-05-13T02:19:42.732Z,6.07
2023-05-13T02:22:09.426Z,5.35
2023-05-13T02:24:40.063Z,5.30
2023-05-13T02:27:07.801Z,6.03
2023-05-13T02:29:34.854Z,6.18
2023-05-13T02:32:01.630Z,7.53
2023-05-13T02:34:28.350Z,5.93
2023-05-13T02:36:56.596Z,7.35
2023-05-13T02:39:23.240Z,5.70
2023-05-13T02:41:50.030Z,5.80
2023-05-13T02:44:16.777Z,5.72
2023-05-13T02:46:44.344Z,5.40
2023-05-13T02:49:11.436Z,7.15
2023-05-13T02:51:38.172Z,5.97
2023-05-13T02:54:06.789Z,6.65
2023-05-13T02:56:33.485Z,6.20
2023-05-13T02:59:00.188Z,5.78
2023-05-13T03:01:27.174Z,5.80
2023-05-13T03:03:54.490Z,5.35
2023-05-13T03:06:21.177Z,5.65
2023-05-13T03:08:47.928Z,5.80
2023-05-13T03:11:14.620Z,5.53
2023-05-13T03:13:41.419Z,6.13
2023-05-13T03:16:08.257Z,6.22
2023-05-13T03:18:36.463Z,5.93
2023-05-13T03:21:03.284Z,5.80
2023-05-13T03:23:30.174Z,6.07
2023-05-13T03:25:56.925Z,6.18
2023-05-13T03:28:23.602Z,6.78
2023-05-13T03:30:51.109Z,6.00
2023-05-13T03:33:17.802Z,6.13
2023-05-13T03:35:45.812Z,6.45
2023-05-13T03:38:12.544Z,7.15
2023-05-13T03:40:39.277Z,5.85
2023-05-13T03:43:07.410Z,6.43
2023-05-13T03:45:34.977Z,6.38
2023-05-13T03:48:01.809Z,6.70
2023-05-13T03:50:28.509Z,6.25
2023-05-13T03:52:56.327Z,5.97
2023-05-13T03:55:23.013Z,6.65
2023-05-13T03:57:50.298Z,6.13
2023-05-13T04:00:17.174Z,6.38
2023-05-13T04:02:44.104Z,6.22
2023-05-13T04:05:12.396Z,6.68
2023-05-13T04:07:39.638Z,6.80
2023-05-13T04:10:06.846Z,5.90
2023-05-13T04:12:33.814Z,7.88
2023-05-13T04:15:01.032Z,6.53
2023-05-13T04:17:28.958Z,5.82
2023-05-13T04:19:57.080Z,6.38
2023-05-13T04:22:24.844Z,6.40
2023-05-13T04:24:56.626Z,6.60
2023-05-13T04:27:24.329Z,8.20
2023-05-13T04:29:51.109Z,7.07
2023-05-13T04:32:22.008Z,7.05
2023-05-13T04:34:49.544Z,7.53
2023-05-13T04:37:16.357Z,6.90
2023-05-13T04:39:47.018Z,7.22
2023-05-13T04:42:14.818Z,6.65
2023-05-13T04:44:41.535Z,7.50
2023-05-13T04:47:08.318Z,6.78
2023-05-13T04:49:35.154Z,7.55
2023-05-13T04:52:04.388Z,8.23
2023-05-13T04:54:31.135Z,6.93
2023-05-13T04:56:57.784Z,6.68
2023-05-13T04:59:24.507Z,7.25
2023-05-13T05:01:51.374Z,7.15
2023-05-13T05:04:18.836Z,7.78
2023-05-13T05:06:45.650Z,6.70
2023-05-13T05:09:13.515Z,9.00
2023-05-13T05:11:40.267Z,7.50
2023-05-13T05:14:06.987Z,8.07
2023-05-13T05:16:33.717Z,7.47
2023-05-13T05:19:00.475Z,8.23
2023-05-13T05:21:27.163Z,7.15
2023-05-13T05:23:54.019Z,8.98
2023-05-13T05:26:20.807Z,10.02
2023-05-13T05:28:47.552Z,9.60
2023-05-13T05:31:14.507Z,9.32
2023-05-13T05:33:42.033Z,9.45
2023-05-13T05:36:09.294Z,10.45
2023-05-13T05:38:36.090Z,11.65
2023-05-13T05:41:03.543Z,10.77
2023-05-13T05:43:30.918Z,10.05
2023-05-13T05:45:57.929Z,10.18
2023-05-13T05:48:24.838Z,9.85
2023-05-13T05:50:52.043Z,10.38
2023-05-13T05:53:19.497Z,9.65
2023-05-13T05:55:46.379Z,9.13
2023-05-13T05:58:16.570Z,9.07
2023-05-13T06:00:43.523Z,9.10
2023-05-13T06:03:11.047Z,9.45
2023-05-13T06:05:39.223Z,8.32
2023-05-13T06:08:07.082Z,6.18
2023-05-13T06:10:33.787Z,6.35
2023-05-13T06:13:00.456Z,6.05
2023-05-13T06:15:27.287Z,5.68
2023-05-13T06:17:54.041Z,5.75
2023-05-13T06:20:20.965Z,5.45
2023-05-13T06:22:48.317Z,5.68
2023-05-13T06:25:15.855Z,6.30
2023-05-13T06:27:45.144Z,6.85
2023-05-13T06:30:11.991Z,5.50
2023-05-13T06:32:42.725Z,6.22
2023-05-13T06:35:14.425Z,5.88
2023-05-13T06:37:41.476Z,6.10
2023-05-13T06:40:09.232Z,5.78
2023-05-13T06:42:40.996Z,6.80
2023-05-13T06:45:09.625Z,6.53
2023-05-13T06:47:36.600Z,6.28
2023-05-13T06:50:04.858Z,6.80
2023-05-13T06:52:32.109Z,5.75
2023-05-13T06:55:03.258Z,7.03
2023-05-13T06:57:41.865Z,8.90
2023-05-13T07:00:09.891Z,5.78
2023-05-13T07:02:36.706Z,5.53
2023-05-13T07:05:04.081Z,4.68
2023-05-13T07:07:30.922Z,5.40
2023-05-13T07:09:57.608Z,5.25
2023-05-13T07:12:24.397Z,4.35
2023-05-13T07:14:51.122Z,4.15
2023-05-13T07:17:18.606Z,4.10
2023-05-13T07:19:45.653Z,3.83
2023-05-13T07:22:12.337Z,3.65
2023-05-13T07:24:39.165Z,2.70
2023-05-13T07:27:06.213Z,3.13
2023-05-13T07:29:33.929Z,3.00
2023-05-13T07:32:05.271Z,3.30
2023-05-13T07:34:32.654Z,3.00
2023-05-13T07:37:01.969Z,3.08
2023-05-13T07:39:29.560Z,2.70
2023-05-13T07:41:57.707Z,3.72
2023-05-13T07:44:24.961Z,2.60
2023-05-13T07:46:53.724Z,2.78
2023-05-13T07:49:21.778Z,2.75
2023-05-13T07:51:48.719Z,2.85
2023-05-13T07:54:15.524Z,2.95
2023-05-13T07:56:44.357Z,2.78
2023-05-13T07:59:11.160Z,2.85
2023-05-13T08:01:38.070Z,2.72
2023-05-13T08:04:04.910Z,2.90
2023-05-13T08:06:32.778Z,2.95
2023-05-13T08:08:59.943Z,3.35
2023-05-13T08:11:26.998Z,2.90
2023-05-13T08:13:54.827Z,3.10
2023-05-13T08:16:21.605Z,3.03
2023-05-13T08:18:48.370Z,3.20
2023-05-13T08:21:15.788Z,3.10
2023-05-13T08:23:46.000Z,2.78
2023-05-13T08:26:13.936Z,2.90
2023-05-13T08:28:42.745Z,3.05
2023-05-13T08:31:12.634Z,3.33
2023-05-13T08:33:42.012Z,2.72
2023-05-13T08:36:09.406Z,3.00
2023-05-13T08:38:36.148Z,3.00
2023-05-13T08:41:10.236Z,2.83
2023-05-13T08:43:39.862Z,2.70
2023-05-13T08:46:11.129Z,3.70
2023-05-13T08:48:42.298Z,2.33
2023-05-13T08:51:09.966Z,2.65
2023-05-13T08:53:40.057Z,3.00
2023-05-13T08:56:08.622Z,3.50
2023-05-13T08:58:35.738Z,4.82
2023-05-13T09:01:03.876Z,2.90
2023-05-13T09:03:31.702Z,3.15
2023-05-13T09:06:01.944Z,3.05
2023-05-13T09:08:29.079Z,2.75
2023-05-13T09:10:56.246Z,2.15
2023-05-13T09:13:22.996Z,3.03
2023-05-13T09:15:51.047Z,3.05
2023-05-13T09:18:19.287Z,2.95
2023-05-13T09:20:46.761Z,3.43
2023-05-13T09:23:13.772Z,3.13
2023-05-13T09:25:42.646Z,3.17
2023-05-13T09:28:09.457Z,2.67
2023-05-13T09:30:44.566Z,2.60
2023-05-13T09:33:15.101Z,2.65
2023-05-13T09:35:48.768Z,2.90
2023-05-13T09:38:35.844Z,2.75
2023-05-13T09:41:03.351Z,2.95
2023-05-13T09:43:34.071Z,3.10
2023-05-13T09:46:06.109Z,3.17
2023-05-13T09:48:34.200Z,3.22
2023-05-13T09:51:01.974Z,2.83
2023-05-13T09:53:29.145Z,2.80
2023-05-13T09:55:57.537Z,2.80
2023-05-13T09:58:31.428Z,2.67
2023-05-13T10:00:58.650Z,3.25
2023-05-13T10:03:25.673Z,3.30
2023-05-13T10:05:53.912Z,2.85
2023-05-13T10:08:22.208Z,2.92
2023-05-13T10:10:50.710Z,2.47
2023-05-13T10:13:20.691Z,2.60
2023-05-13T10:15:52.632Z,2.63
2023-05-13T10:18:21.328Z,2.63
2023-05-13T10:20:53.474Z,2.00
2023-05-13T10:23:22.669Z,2.20
2023-05-13T10:25:50.924Z,2.83
2023-05-13T10:28:17.850Z,2.53
2023-05-13T10:30:45.172Z,2.70
2023-05-13T10:33:12.455Z,2.38
2023-05-13T10:35:43.473Z,2.40
2023-05-13T10:38:32.791Z,2.75
2023-05-13T10:41:22.568Z,2.83
2023-05-13T10:43:57.775Z,2.50
2023-05-13T10:46:24.823Z,2.47
2023-05-13T10:48:57.451Z,3.10
2023-05-13T10:51:26.464Z,2.22
2023-05-13T10:53:56.255Z,2.15
2023-05-13T10:56:24.948Z,3.50
2023-05-13T10:59:05.720Z,2.88
2023-05-13T11:01:43.994Z,2.53
2023-05-13T11:04:18.932Z,3.00
2023-05-13T11:06:47.579Z,2.65
2023-05-13T11:09:42.076Z,2.55
2023-05-13T11:12:15.158Z,2.88
2023-05-13T11:14:44.833Z,2.63
2023-05-13T11:19:46.855Z,2.78
2023-05-13T11:22:20.814Z,2.60
2023-05-13T11:25:09.398Z,3.15
2023-05-13T11:27:41.244Z,2.65
2023-05-13T11:30:21.517Z,2.53
2023-05-13T11:32:56.173Z,2.65
2023-05-13T11:35:33.500Z,2.60
2023-05-13T11:38:02.448Z,2.90
2023-05-13T11:40:33.289Z,2.80
2023-05-13T11:43:01.526Z,3.13
2023-05-13T11:45:30.273Z,3.10
2023-05-13T11:47:57.823Z,2.80
2023-05-13T11:50:30.576Z,2.65
2023-05-13T11:52:59.393Z,2.90
2023-05-13T11:55:27.456Z,3.28
2023-05-13T11:57:54.867Z,2.90
2023-05-13T12:00:33.048Z,3.28
2023-05-13T12:03:12.044Z,3.20
2023-05-13T12:05:44.343Z,3.17
2023-05-13T12:08:12.276Z,2.92
2023-05-13T12:10:45.260Z,3.60
2023-05-13T12:13:12.772Z,3.20
2023-05-13T12:15:39.917Z,3.33
2023-05-13T12:18:07.665Z,3.47
2023-05-13T12:20:34.563Z,3.70
2023-05-13T12:23:01.739Z,4.05
2023-05-13T12:25:35.070Z,3.65
2023-05-13T12:28:26.748Z,3.42
2023-05-13T12:31:02.376Z,3.10
2023-05-13T12:33:32.802Z,3.38
2023-05-13T12:36:25.627Z,3.92
2023-05-13T12:39:01.059Z,3.65
2023-05-13T12:41:39.636Z,3.05
2023-05-13T12:44:15.804Z,3.75
2023-05-13T12:47:02.396Z,3.50
2023-05-13T12:49:30.236Z,3.28
2023-05-13T12:51:57.273Z,3.38
2023-05-13T12:54:23.998Z,3.30
2023-05-13T12:56:52.621Z,3.55
2023-05-13T12:59:20.903Z,3.45
2023-05-13T13:01:49.997Z,3.35
2023-05-13T13:04:19.916Z,3.72
2023-05-13T13:06:46.820Z,3.22
2023-05-13T13:09:13.653Z,3.55
2023-05-13T13:11:40.854Z,3.70
2023-05-13T13:14:09.585Z,3.50
2023-05-13T13:16:36.606Z,3.58
2023-05-13T13:19:03.353Z,3.53
2023-05-13T13:21:30.120Z,3.40
2023-05-13T13:23:56.803Z,3.10
2023-05-13T13:26:23.826Z,3.10
2023-05-13T13:28:50.597Z,3.00
2023-05-13T13:31:17.382Z,2.83
2023-05-13T13:33:44.106Z,2.67
2023-05-13T13:36:11.139Z,2.50
2023-05-13T13:38:37.816Z,2.60
2023-05-13T13:41:04.529Z,2.97
2023-05-13T13:43:31.228Z,2.63
2023-05-13T13:45:58.071Z,2.80
2023-05-13T13:48:25.317Z,2.92
2023-05-13T13:50:53.007Z,2.83
2023-05-13T13:53:19.835Z,2.80
2023-05-13T13:55:46.671Z,2.80
2023-05-13T13:58:14.526Z,2.83
2023-05-13T14:00:41.255Z,2.58
2023-05-13T14:03:08.920Z,2.60
2023-05-13T14:05:36.439Z,2.75
2023-05-13T14:08:03.370Z,3.00
2023-05-13T14:10:30.026Z,2.40
2023-05-13T14:12:56.816Z,2.33
2023-05-13T14:15:28.725Z,2.47
2023-05-13T14:17:56.272Z,4.03
2023-05-13T14:20:24.967Z,2.60
2023-05-13T14:22:51.703Z,2.75
2023-05-13T14:25:18.370Z,2.75
2023-05-13T14:27:45.078Z,2.55
2023-05-13T14:30:12.088Z,2.72
2023-05-13T14:32:38.833Z,2.65
2023-05-13T14:35:07.393Z,2.53
2023-05-13T14:37:34.079Z,2.38
2023-05-13T14:40:00.726Z,2.35
2023-05-13T14:42:27.422Z,2.78
2023-05-13T14:44:54.096Z,2.80
2023-05-13T14:47:20.858Z,2.60
2023-05-13T14:49:47.654Z,2.75
2023-05-13T14:52:14.285Z,2.40
2023-05-13T14:54:41.509Z,2.70
2023-05-13T14:57:08.329Z,2.40
2023-05-13T14:59:35.132Z,2.53
2023-05-13T15:02:03.504Z,2.55
2023-05-13T15:04:30.660Z,2.22
2023-05-13T15:06:58.314Z,2.60
2023-05-13T15:09:25.407Z,2.95
2023-05-13T15:11:52.137Z,2.97
2023-05-13T15:14:26.167Z,3.28
2023-05-13T15:16:53.402Z,2.90
2023-05-13T15:19:20.200Z,3.10
2023-05-13T15:21:46.918Z,2.65
2023-05-13T15:24:13.586Z,2.35
2023-05-13T15:26:40.466Z,2.13
2023-05-13T15:29:08.741Z,2.35
2023-05-13T15:31:35.619Z,2.53
2023-05-13T15:34:03.425Z,2.30
2023-05-13T15:36:30.104Z,2.30
2023-05-13T15:38:58.693Z,2.75
2023-05-13T15:41:25.467Z,2.72
2023-05-13T15:43:52.263Z,2.47
2023-05-13T15:46:19.257Z,2.00
2023-05-13T15:48:46.453Z,2.42
2023-05-13T15:51:13.853Z,2.10
2023-05-13T15:53:41.057Z,2.42
2023-05-13T15:56:07.986Z,2.15
2023-05-13T15:58:34.765Z,2.22
2023-05-13T16:01:01.539Z,3.15
2023-05-13T16:03:28.173Z,2.13
2023-05-13T16:05:55.462Z,2.33
2023-05-13T16:08:22.241Z,2.60
2023-05-13T16:10:49.040Z,2.90
2023-05-13T16:13:15.729Z,2.42
2023-05-13T16:15:42.513Z,2.40
2023-05-13T16:18:09.309Z,2.83
2023-05-13T16:20:36.055Z,2.40
2023-05-13T16:23:02.734Z,2.80
2023-05-13T16:25:29.628Z,2.65
2023-05-13T16:27:56.768Z,2.63
2023-05-13T16:30:23.892Z,3.05
2023-05-13T16:32:53.522Z,3.00
2023-05-13T16:35:21.087Z,2.88
2023-05-13T16:37:48.417Z,3.03
2023-05-13T16:40:15.413Z,3.40
2023-05-13T16:42:42.241Z,3.03
2023-05-13T16:45:09.334Z,2.88
2023-05-13T16:47:36.213Z,2.78
2023-05-13T16:50:03.687Z,2.90
2023-05-13T16:52:34.587Z,3.17
2023-05-13T16:55:01.302Z,3.17
2023-05-13T16:57:28.011Z,3.42
2023-05-13T16:59:54.804Z,2.90
2023-05-13T17:02:21.575Z,3.20
2023-05-13T17:04:48.466Z,3.75
2023-05-13T17:07:15.249Z,3.67
2023-05-13T17:09:41.984Z,4.10
2023-05-13T17:12:08.825Z,3.97
2023-05-13T17:14:35.468Z,3.85
2023-05-13T17:17:03.770Z,3.40
2023-05-13T17:19:30.903Z,3.38
2023-05-13T17:21:57.580Z,3.85
2023-05-13T17:24:24.338Z,5.80
2023-05-13T17:26:51.126Z,3.10
2023-05-13T17:29:17.844Z,4.60
2023-05-13T17:31:44.755Z,4.65
2023-05-13T17:34:11.700Z,3.85
2023-05-13T17:36:38.398Z,2.90
2023-05-13T17:39:05.105Z,3.50
2023-05-13T17:41:31.825Z,3.45
2023-05-13T17:43:58.593Z,3.38
2023-05-13T17:46:25.339Z,3.53
2023-05-13T17:48:52.678Z,3.13
2023-05-13T17:51:20.557Z,3.05
2023-05-13T17:53:47.198Z,3.53
2023-05-13T17:56:14.054Z,3.47
2023-05-13T17:58:41.051Z,3.10
2023-05-13T18:01:08.286Z,3.00
2023-05-13T18:03:35.667Z,3.97
2023-05-13T18:06:02.337Z,3.78
2023-05-13T18:08:29.664Z,3.13
2023-05-13T18:10:56.366Z,3.60
2023-05-13T18:13:25.182Z,3.72
2023-05-13T18:15:51.985Z,3.60
2023-05-13T18:18:21.577Z,3.92
2023-05-13T18:20:48.277Z,3.67
2023-05-13T18:23:15.745Z,3.85
2023-05-13T18:25:54.703Z,3.70
2023-05-13T18:28:22.733Z,4.50
2023-05-13T18:30:49.481Z,4.13
2023-05-13T18:33:16.605Z,4.07
2023-05-13T18:35:44.031Z,3.97
2023-05-13T18:38:10.850Z,3.72
2023-05-13T18:40:38.251Z,4.43
2023-05-13T18:43:05.006Z,4.68
2023-05-13T18:45:31.758Z,4.35
2023-05-13T18:47:58.712Z,4.20
2023-05-13T18:50:25.574Z,4.00
2023-05-13T18:52:54.105Z,4.70
2023-05-13T18:55:21.496Z,5.57
2023-05-13T18:57:49.400Z,4.65
2023-05-13T19:00:16.858Z,5.47
2023-05-13T19:02:43.761Z,5.38
2023-05-13T19:05:10.689Z,4.40
2023-05-13T19:07:37.602Z,4.35
2023-05-13T19:10:04.547Z,4.85
2023-05-13T19:12:31.322Z,4.80
2023-05-13T19:14:57.996Z,5.00
2023-05-13T19:17:25.854Z,5.60
2023-05-13T19:19:52.866Z,5.22
2023-05-13T19:22:19.513Z,6.07
2023-05-13T19:24:48.179Z,6.13
2023-05-13T19:27:18.104Z,6.00
2023-05-13T19:29:47.742Z,5.22
2023-05-13T19:32:15.005Z,5.40
2023-05-13T19:34:43.281Z,5.43
2023-05-13T19:37:10.160Z,5.53
2023-05-13T19:39:36.944Z,5.35
2023-05-13T19:42:03.733Z,4.90
2023-05-13T19:44:31.957Z,4.88
2023-05-13T19:46:58.786Z,5.28
2023-05-13T19:49:26.076Z,4.57
2023-05-13T19:51:53.164Z,5.03
2023-05-13T19:54:20.648Z,5.40
2023-05-13T19:56:49.166Z,5.28
2023-05-13T19:59:15.891Z,5.35
2023-05-13T20:01:42.908Z,7.72
2023-05-13T20:04:10.093Z,5.68
2023-05-13T20:06:39.264Z,5.13
2023-05-13T20:09:06.983Z,5.87
2023-05-13T20:11:33.800Z,5.50
2023-05-13T20:14:00.503Z,5.90
2023-05-13T20:16:27.250Z,6.20
2023-05-13T20:19:05.771Z,5.97
2023-05-13T20:21:32.534Z,6.13
2023-05-13T20:24:00.094Z,5.82
2023-05-13T20:26:28.146Z,5.70
2023-05-13T20:28:54.945Z,6.18
2023-05-13T20:31:21.692Z,5.97
2023-05-13T20:33:48.433Z,6.63
2023-05-13T20:36:15.292Z,6.40
2023-05-13T20:38:41.986Z,6.45
2023-05-13T20:41:08.713Z,6.10
2023-05-13T20:43:37.598Z,6.35
2023-05-13T20:46:09.333Z,7.80
2023-05-13T20:48:38.874Z,6.13
2023-05-13T20:51:06.346Z,6.28
2023-05-13T20:53:37.987Z,6.25
2023-05-13T20:56:05.005Z,6.82
2023-05-13T20:58:32.301Z,6.00
2023-05-13T21:00:59.040Z,6.50
2023-05-13T21:03:26.045Z,6.85
2023-05-13T21:05:52.760Z,5.95
2023-05-13T21:08:19.511Z,6.55
2023-05-13T21:10:47.256Z,6.68
2023-05-13T21:13:14.230Z,6.40
2023-05-13T21:15:41.100Z,6.97
2023-05-13T21:18:08.555Z,7.00
2023-05-13T21:20:35.752Z,7.60
2023-05-13T21:23:02.490Z,6.22
2023-05-13T21:25:29.372Z,6.90
2023-05-13T21:27:57.331Z,6.13
2023-05-13T21:30:25.003Z,7.47
2023-05-13T21:32:52.081Z,6.95
2023-05-13T21:35:19.456Z,6.85
2023-05-13T21:37:47.449Z,6.10
2023-05-13T21:40:14.868Z,7.40
2023-05-13T21:42:41.598Z,7.80
2023-05-13T21:45:08.957Z,7.00
2023-05-13T21:47:35.764Z,7.18
2023-05-13T21:50:03.025Z,7.65
2023-05-13T21:52:29.765Z,6.78
2023-05-13T21:54:56.657Z,7.22
2023-05-13T21:57:23.341Z,7.05
2023-05-13T21:59:50.094Z,6.93
2023-05-13T22:02:16.922Z,6.95
2023-05-13T22:04:43.716Z,7.10
2023-05-13T22:07:10.438Z,7.93
2023-05-13T22:09:37.411Z,6.80
2023-05-13T22:12:04.426Z,7.70
2023-05-13T22:14:31.403Z,8.10
2023-05-13T22:17:08.384Z,8.07
2023-05-13T22:19:36.987Z,9.00
2023-05-13T22:22:03.810Z,8.65
2023-05-13T22:24:30.998Z,7.70
2023-05-13T22:26:59.113Z,8.13
2023-05-13T22:29:26.304Z,7.50
2023-05-13T22:31:53.069Z,7.28
2023-05-13T22:34:19.817Z,8.15
2023-05-13T22:36:46.530Z,7.28
2023-05-13T22:39:14.509Z,7.68
2023-05-13T22:41:41.353Z,6.65
2023-05-13T22:44:08.061Z,7.85
2023-05-13T22:46:34.798Z,8.63
2023-05-13T22:49:01.583Z,7.97
2023-05-13T22:51:28.297Z,8.48
2023-05-13T22:53:54.994Z,9.05
2023-05-13T22:56:22.006Z,7.93
2023-05-13T22:58:48.735Z,8.48
2023-05-13T23:01:15.531Z,7.55
2023-05-13T23:03:42.317Z,8.52
2023-05-13T23:06:10.526Z,8.68
2023-05-13T23:08:37.885Z,9.05
2023-05-13T23:11:04.807Z,10.02
2023-05-13T23:13:31.571Z,8.30
2023-05-13T23:15:58.354Z,9.70
2023-05-13T23:18:25.184Z,9.43
2023-05-13T23:20:55.939Z,9.30
2023-05-13T23:23:23.213Z,10.30
2023-05-13T23:25:50.357Z,8.90
2023-05-13T23:28:17.412Z,10.00
2023-05-13T23:30:44.194Z,9.85
2023-05-13T23:33:11.099Z,10.68
2023-05-13T23:35:38.106Z,10.35
2023-05-13T23:38:04.892Z,9.85
2023-05-13T23:40:31.586Z,9.82
2023-05-13T23:42:58.324Z,15.95
2023-05-13T23:45:25.013Z,9.00
2023-05-13T23:47:51.953Z,8.35
2023-05-13T23:50:18.709Z,9.63
2023-05-13T23:52:45.588Z,8.70
2023-05-13T23:55:12.450Z,9.60
2023-05-13T23:57:39.147Z,8.85
